Wetterdaten: aktuell Freitag, 01.03.2024 06:16
Datum Zeit Temperatur Luftfeuchte Luftdruck Regen Wind Richtung Richtung Sonnenschein Helligkeit Taupunkt Windchill
01.03.2024 06:16 4,7 C 87 % 1006,0 hPa 0,0 l/m 6,4 km/h (2 Bft) S22.5 190 0 min 0 lux 2,7 C 4,7 C
01.03.2024 05:16 4,9 C 88 % 1006,0 hPa 0,0 l/m 11,7 km/h (2 Bft) SW 220 0 min 0 lux 3,1 C 0,8 C
01.03.2024 04:16 4,9 C 89 % 1004,9 hPa 0,0 l/m 0,0 km/h (0 Bft) SW 215 0 min 0 lux 3,2 C 4,9 C
01.03.2024 03:16 4,7 C 90 % 1004,9 hPa 0,0 l/m 7,1 km/h (2 Bft) W-SW22.5 240 0 min 0 lux 3,2 C 4,1 C
01.03.2024 02:16 4,3 C 92 % 1006,2 hPa 0,0 l/m 24,5 km/h (4 Bft) W-SW45 240 0 min 0 lux 3,1 C -5,7 C
01.03.2024 01:16 3,1 C 91 % 1006,5 hPa 0,0 l/m 8,5 km/h (2 Bft) W-SW45 240 0 min 0 lux 1,8 C 1,2 C
01.03.2024 00:16 2,5 C 90 % 1006,7 hPa 0,0 l/m 0,0 km/h (0 Bft) O-NO 70 0 min 0 lux 1,0 C 2,5 C
29.02.2024 23:16 2,6 C 88 % 1006,7 hPa 0,0 l/m 0,0 km/h (0 Bft) O-NO 75 0 min 0 lux 0,8 C 2,6 C
29.02.2024 22:16 3,2 C 87 % 1007,6 hPa 0,0 l/m 0,0 km/h (0 Bft) O-NO 75 0 min 0 lux 1,2 C 3,2 C
29.02.2024 21:16 4,0 C 85 % 1007,3 hPa 0,0 l/m 0,0 km/h (0 Bft) O-NO 75 0 min 0 lux 1,7 C 4,0 C
29.02.2024 20:16 4,6 C 82 % 1007,2 hPa 0,0 l/m 0,0 km/h (0 Bft) O-NO 70 0 min 0 lux 1,8 C 4,6 C
29.02.2024 19:15 5,8 C 80 % 1006,8 hPa 0,0 l/m 0,0 km/h (0 Bft) O-NO 70 0 min 1 lux 2,6 C 5,8 C
29.02.2024 18:15 7,5 C 77 % 1007,3 hPa 0,0 l/m 0,0 km/h (0 Bft) O-NO 70 12 min 332 lux 3,7 C 7,5 C
29.02.2024 17:15 8,9 C 74 % 1006,9 hPa 0,0 l/m 6,3 km/h (2 Bft) NO 50 60 min 11,3 klux 4,5 C 8,9 C
29.02.2024 16:15 10,0 C 71 % 1007,7 hPa 0,0 l/m 9,9 km/h (2 Bft) O-NO22.5 70 60 min 27,2 klux 5,0 C 7,7 C
29.02.2024 15:15 10,4 C 71 % 1008,6 hPa 0,0 l/m 13,8 km/h (3 Bft) O-NO22.5 60 60 min 39,4 klux 5,4 C 6,1 C
29.02.2024 14:15 10,2 C 72 % 1009,8 hPa 0,0 l/m 10,4 km/h (2 Bft) O-NO22.5 60 60 min 49,0 klux 5,4 C 7,6 C
29.02.2024 13:15 9,7 C 74 % 1011,0 hPa 0,0 l/m 11,9 km/h (2 Bft) NO22.5 45 60 min 56,3 klux 5,3 C 6,2 C
29.02.2024 12:15 8,7 C 80 % 1011,3 hPa 0,0 l/m 12,8 km/h (3 Bft) O-NO45 75 60 min 57,3 klux 5,4 C 4,6 C
29.02.2024 11:15 6,8 C 92 % 1013,0 hPa 0,0 l/m 9,8 km/h (2 Bft) O-NO22.5 75 60 min 53,6 klux 5,6 C 4,2 C
29.02.2024 10:15 4,3 C 96 % 1014,9 hPa 0,0 l/m 0,3 km/h (0 Bft) O-NO 70 60 min 46,0 klux 3,7 C 4,3 C
29.02.2024 09:15 1,7 C 96 % 1016,8 hPa 0,0 l/m 0,0 km/h (0 Bft) SW 215 60 min 34,4 klux 1,1 C 1,7 C
29.02.2024 08:15 -0,6 C 96 % 1017,6 hPa 0,0 l/m 0,0 km/h (0 Bft) W 260 45 min 21,0 klux -1,2 C -0,6 C
29.02.2024 07:15 -1,4 C 95 % 1017,8 hPa 0,0 l/m 8,0 km/h (2 Bft) W22.5 260 0 min 895 lux -2,1 C -3,1 C
29.02.2024 07:00 -1,3 C 95 % 1017,8 hPa 0,0 l/m 9,2 km/h (2 Bft) W22.5 260 0 min 159 lux -2,0 C -4,2 C
_ Min-Zeit 07:09 14:51 04:01 - 08:15 - - - - 07:09 02:16
Minimum _ -1,4 C 71 % 1004,9 hPa - 0,0 km/h (0 Bft) - - - - -2,1 C -5,7 C
_ Max-Zeit 15:12 07:24 07:09 07:00 02:16 - - 13:09 12:18 12:21 15:45
Maximum _ 10,4 C 96 % 1017,8 hPa 0,0 l/m 24,5 km/h
W-SW (4 Bft)
- - 4 min 58,0 klux 5,8 C 10,3 C
Durchschnitt _ 5,3 C 85 % 1009,0 hPa #0,0 l/m 6,2 km/h (2 Bft) O-NO - #0 min. 16,8 klux 2,9 C 3,7 C